createdAt,value
2019-04-27T00:00:04.024Z,75.01
2019-04-27T00:01:05.209Z,75.31
2019-04-27T00:02:05.678Z,75.10
2019-04-27T00:03:06.051Z,75.10
2019-04-27T00:04:04.139Z,75.10
2019-04-27T00:05:03.964Z,75.10
2019-04-27T00:06:05.366Z,74.90
2019-04-27T00:07:03.946Z,74.90
2019-04-27T00:08:03.945Z,74.90
2019-04-27T00:09:07.546Z,74.69
2019-04-27T00:10:03.923Z,74.80
2019-04-27T00:11:06.838Z,74.69
2019-04-27T00:12:05.703Z,74.80
2019-04-27T00:13:05.696Z,74.69
2019-04-27T00:14:03.891Z,74.60
2019-04-27T00:15:03.864Z,75.01
2019-04-27T00:16:09.755Z,75.01
2019-04-27T00:17:04.834Z,75.01
2019-04-27T00:18:03.837Z,75.01
2019-04-27T00:19:03.996Z,74.80
2019-04-27T00:20:04.335Z,74.80
2019-04-27T00:21:03.855Z,75.04
2019-04-27T00:22:03.796Z,74.94
2019-04-27T00:23:03.775Z,74.94
2019-04-27T00:24:03.763Z,74.94
2019-04-27T00:25:03.774Z,75.14
2019-04-27T00:26:03.760Z,75.14
2019-04-27T00:27:03.772Z,75.14
2019-04-27T00:28:05.406Z,75.55
2019-04-27T00:29:03.884Z,75.14
2019-04-27T00:30:04.012Z,75.14
2019-04-27T00:31:03.716Z,75.35
2019-04-27T00:32:04.237Z,75.35
2019-04-27T00:33:05.321Z,75.24
2019-04-27T00:34:03.756Z,75.45
2019-04-27T00:35:03.886Z,75.45
2019-04-27T00:36:03.645Z,75.45
2019-04-27T00:37:03.784Z,75.45
2019-04-27T00:38:03.605Z,75.55
2019-04-27T00:39:05.219Z,75.55
2019-04-27T00:40:03.595Z,75.55
2019-04-27T00:41:03.585Z,75.45
2019-04-27T00:42:03.565Z,75.55
2019-04-27T00:43:03.569Z,75.55
2019-04-27T00:44:03.545Z,75.79
2019-04-27T00:45:05.422Z,75.89
2019-04-27T00:46:04.084Z,75.99
2019-04-27T00:47:03.595Z,75.99
2019-04-27T00:48:03.693Z,75.89
2019-04-27T00:49:03.742Z,75.59
2019-04-27T00:50:03.648Z,75.79
2019-04-27T00:51:04.236Z,75.99
2019-04-27T00:52:03.742Z,75.79
2019-04-27T00:53:03.598Z,75.89
2019-04-27T00:54:04.660Z,75.99
2019-04-27T00:55:03.425Z,75.99
2019-04-27T00:56:03.905Z,75.99
2019-04-27T00:57:03.409Z,75.99
2019-04-27T00:58:04.215Z,76.40
2019-04-27T00:59:03.581Z,76.20
2019-04-27T01:00:05.117Z,76.51
2019-04-27T01:01:04.139Z,76.72
2019-04-27T01:02:03.782Z,76.72
2019-04-27T01:03:03.836Z,76.61
2019-04-27T01:04:03.758Z,77.33
2019-04-27T01:05:03.752Z,77.23
2019-04-27T01:06:03.356Z,76.72
2019-04-27T01:07:03.305Z,76.81
2019-04-27T01:08:03.795Z,76.92
2019-04-27T01:09:03.578Z,77.12
2019-04-27T01:10:05.238Z,76.81
2019-04-27T01:11:03.252Z,76.95
2019-04-27T01:12:03.698Z,77.16
2019-04-27T01:13:03.387Z,77.16
2019-04-27T01:14:03.881Z,77.36
2019-04-27T01:15:03.662Z,77.36
2019-04-27T01:16:03.196Z,77.16
2019-04-27T01:17:03.188Z,77.36
2019-04-27T01:18:12.097Z,77.47
2019-04-27T01:19:04.199Z,77.57
2019-04-27T01:20:03.160Z,77.77
2019-04-27T01:21:03.163Z,77.67
2019-04-27T01:22:03.139Z,77.87
2019-04-27T01:23:03.127Z,77.67
2019-04-27T01:24:03.120Z,77.67
2019-04-27T01:25:03.118Z,77.91
2019-04-27T01:26:03.098Z,78.12
2019-04-27T01:27:03.075Z,78.12
2019-04-27T01:28:03.099Z,78.42
2019-04-27T01:29:03.074Z,78.32
2019-04-27T01:30:03.051Z,78.32
2019-04-27T01:31:03.047Z,78.53
2019-04-27T01:32:03.050Z,78.74
2019-04-27T01:33:03.017Z,79.28
2019-04-27T01:34:03.011Z,79.08
2019-04-27T01:35:03.000Z,78.87
2019-04-27T01:36:02.987Z,79.38
2019-04-27T01:37:02.968Z,79.18
2019-04-27T01:38:02.979Z,79.59
2019-04-27T01:39:02.991Z,79.49
2019-04-27T01:40:02.949Z,79.80
2019-04-27T01:41:02.928Z,80.21
2019-04-27T01:42:02.917Z,80.14
2019-04-27T01:43:02.907Z,80.04
2019-04-27T01:44:02.910Z,80.45
2019-04-27T01:45:02.907Z,80.55
2019-04-27T01:46:02.879Z,80.65
2019-04-27T01:47:02.879Z,80.65
2019-04-27T01:48:02.867Z,80.76
2019-04-27T01:49:02.838Z,80.86
2019-04-27T01:50:02.901Z,80.65
2019-04-27T01:51:02.829Z,80.79
2019-04-27T01:52:02.828Z,80.79
2019-04-27T01:53:02.809Z,81.30
2019-04-27T01:54:02.787Z,81.51
2019-04-27T01:55:02.791Z,81.30
2019-04-27T01:56:02.780Z,81.51
2019-04-27T01:57:04.213Z,81.41
2019-04-27T01:58:02.759Z,81.20
2019-04-27T01:59:02.747Z,81.10
2019-04-27T02:00:02.891Z,81.71
2019-04-27T02:01:02.742Z,81.30
2019-04-27T02:02:02.910Z,81.71
2019-04-27T02:03:02.699Z,81.30
2019-04-27T02:04:02.677Z,81.30
2019-04-27T02:05:02.679Z,81.41
2019-04-27T02:06:02.679Z,81.71
2019-04-27T02:07:02.647Z,81.92
2019-04-27T02:08:02.677Z,81.71
2019-04-27T02:09:02.628Z,81.51
2019-04-27T02:10:02.618Z,81.51
2019-04-27T02:11:02.630Z,81.92
2019-04-27T02:12:02.606Z,81.62
2019-04-27T02:13:02.585Z,81.62
2019-04-27T02:14:02.589Z,81.82
2019-04-27T02:15:02.570Z,81.62
2019-04-27T02:16:02.563Z,81.71
2019-04-27T02:17:02.547Z,81.71
2019-04-27T02:18:02.526Z,81.62
2019-04-27T02:19:02.527Z,81.41
2019-04-27T02:20:02.521Z,81.41
2019-04-27T02:21:02.549Z,81.41
2019-04-27T02:22:02.501Z,81.41
2019-04-27T02:23:02.493Z,81.71
2019-04-27T02:24:02.488Z,81.92
2019-04-27T02:25:02.468Z,81.30
2019-04-27T02:26:02.467Z,81.30
2019-04-27T02:27:02.450Z,81.20
2019-04-27T02:28:02.438Z,81.20
2019-04-27T02:29:02.429Z,81.20
2019-04-27T02:30:02.420Z,81.30
2019-04-27T02:31:02.402Z,81.20
2019-04-27T02:32:03.089Z,81.51
2019-04-27T02:33:02.385Z,81.51
2019-04-27T02:34:02.383Z,81.41
2019-04-27T02:35:02.371Z,81.41
2019-04-27T02:36:02.342Z,81.20
2019-04-27T02:37:02.837Z,81.20
2019-04-27T02:38:02.329Z,81.30
2019-04-27T02:39:02.329Z,81.30
2019-04-27T02:40:02.299Z,81.10
2019-04-27T02:41:02.296Z,80.90
2019-04-27T02:42:02.287Z,81.10
2019-04-27T02:43:02.267Z,80.90
2019-04-27T02:44:02.256Z,80.76
2019-04-27T02:45:02.270Z,80.55
2019-04-27T02:46:02.226Z,80.45
2019-04-27T02:47:02.245Z,80.24
2019-04-27T02:48:02.216Z,80.24
2019-04-27T02:49:06.441Z,80.24
2019-04-27T02:50:02.192Z,80.04
2019-04-27T02:51:02.186Z,80.04
2019-04-27T02:52:02.189Z,80.04
2019-04-27T02:53:03.208Z,79.93
2019-04-27T02:54:02.154Z,80.04
2019-04-27T02:55:02.182Z,80.04
2019-04-27T02:56:02.128Z,80.04
2019-04-27T02:57:02.142Z,79.93
2019-04-27T02:58:02.111Z,80.04
2019-04-27T02:59:02.113Z,79.93
2019-04-27T03:00:02.091Z,79.73
2019-04-27T03:01:02.092Z,79.73
2019-04-27T03:02:02.092Z,79.63
2019-04-27T03:03:02.495Z,79.42
2019-04-27T03:04:02.071Z,79.63
2019-04-27T03:05:02.038Z,79.52
2019-04-27T03:06:02.057Z,79.32
2019-04-27T03:07:02.009Z,79.42
2019-04-27T03:08:02.005Z,79.52
2019-04-27T03:09:01.999Z,79.42
2019-04-27T03:10:02.716Z,79.22
2019-04-27T03:11:01.981Z,79.42
2019-04-27T03:12:01.956Z,79.63
2019-04-27T03:13:01.957Z,79.63
2019-04-27T03:14:01.988Z,79.52
2019-04-27T03:15:01.929Z,79.52
2019-04-27T03:16:01.922Z,79.42
2019-04-27T03:17:01.897Z,79.22
2019-04-27T03:18:01.932Z,79.32
2019-04-27T03:19:11.505Z,79.22
2019-04-27T03:20:02.897Z,79.11
2019-04-27T03:21:01.860Z,79.11
2019-04-27T03:22:01.847Z,79.01
2019-04-27T03:23:01.859Z,79.01
2019-04-27T03:24:01.838Z,79.22
2019-04-27T03:25:01.829Z,78.91
2019-04-27T03:26:01.796Z,78.81
2019-04-27T03:27:01.829Z,78.70
2019-04-27T03:28:02.612Z,78.70
2019-04-27T03:29:01.775Z,78.70
2019-04-27T03:30:01.814Z,78.60
2019-04-27T03:31:02.834Z,78.70
2019-04-27T03:32:02.185Z,78.50
2019-04-27T03:33:03.409Z,78.70
2019-04-27T03:34:05.149Z,78.70
2019-04-27T03:35:03.334Z,78.50
2019-04-27T03:36:02.918Z,78.60
2019-04-27T03:37:01.703Z,78.70
2019-04-27T03:38:01.710Z,78.81
2019-04-27T03:39:01.688Z,78.39
2019-04-27T03:40:01.662Z,78.46
2019-04-27T03:41:01.666Z,78.29
2019-04-27T03:42:01.670Z,78.29
2019-04-27T03:43:01.644Z,78.19
2019-04-27T03:44:01.606Z,78.19
2019-04-27T03:45:01.617Z,78.29
2019-04-27T03:46:01.628Z,78.29
2019-04-27T03:47:01.587Z,78.09
2019-04-27T03:48:01.564Z,78.19
2019-04-27T03:49:01.581Z,78.09
2019-04-27T03:50:01.546Z,77.98
2019-04-27T03:51:01.556Z,77.98
2019-04-27T03:52:03.103Z,77.68
2019-04-27T03:53:01.519Z,77.88
2019-04-27T03:54:01.520Z,77.54
2019-04-27T03:55:01.506Z,77.88
2019-04-27T03:56:01.494Z,77.54
2019-04-27T03:57:02.460Z,77.54
2019-04-27T03:58:01.468Z,77.33
2019-04-27T03:59:01.469Z,77.44
2019-04-27T04:00:01.459Z,77.33
2019-04-27T04:01:01.447Z,77.33
2019-04-27T04:02:02.471Z,77.23
2019-04-27T04:03:01.415Z,77.23
2019-04-27T04:04:01.401Z,77.13
2019-04-27T04:05:01.430Z,76.82
2019-04-27T04:06:01.386Z,76.82
2019-04-27T04:07:01.376Z,76.82
2019-04-27T04:08:01.351Z,76.82
2019-04-27T04:09:01.337Z,76.92
2019-04-27T04:10:01.346Z,76.62
2019-04-27T04:11:01.324Z,76.62
2019-04-27T04:12:02.225Z,76.62
2019-04-27T04:13:01.900Z,76.51
2019-04-27T04:14:01.293Z,76.41
2019-04-27T04:15:01.273Z,76.41
2019-04-27T04:16:01.268Z,76.41
2019-04-27T04:17:02.896Z,76.31
2019-04-27T04:18:01.244Z,76.51
2019-04-27T04:19:01.382Z,76.62
2019-04-27T04:20:01.790Z,76.41
2019-04-27T04:21:01.229Z,76.31
2019-04-27T04:22:01.215Z,76.51
2019-04-27T04:23:03.314Z,76.31
2019-04-27T04:24:01.511Z,76.31
2019-04-27T04:25:01.191Z,76.20
2019-04-27T04:26:01.165Z,76.10
2019-04-27T04:27:01.155Z,76.00
2019-04-27T04:28:01.165Z,76.10
2019-04-27T04:29:01.155Z,76.10
2019-04-27T04:30:01.157Z,76.10
2019-04-27T04:31:01.103Z,76.10
2019-04-27T04:32:01.091Z,76.10
2019-04-27T04:33:01.120Z,76.41
2019-04-27T04:34:01.079Z,76.10
2019-04-27T04:35:01.453Z,76.20
2019-04-27T04:36:01.064Z,76.10
2019-04-27T04:37:01.104Z,76.00
2019-04-27T04:38:01.036Z,75.90
2019-04-27T04:39:01.054Z,75.86
2019-04-27T04:40:01.039Z,75.66
2019-04-27T04:41:00.991Z,75.56
2019-04-27T04:42:00.992Z,75.56
2019-04-27T04:43:03.374Z,75.45
2019-04-27T04:44:00.965Z,75.35
2019-04-27T04:45:00.953Z,75.45
2019-04-27T04:46:00.954Z,75.24
2019-04-27T04:47:00.938Z,75.24
2019-04-27T04:48:00.952Z,75.24
2019-04-27T04:49:00.913Z,75.24
2019-04-27T04:50:11.112Z,75.15
2019-04-27T04:51:01.894Z,75.04
2019-04-27T04:52:00.892Z,75.11
2019-04-27T04:53:00.861Z,74.90
2019-04-27T04:54:00.863Z,74.70
2019-04-27T04:55:02.509Z,74.70
2019-04-27T04:56:00.853Z,74.60
2019-04-27T04:57:00.840Z,74.49
2019-04-27T04:58:00.815Z,74.19
2019-04-27T04:59:00.820Z,74.29
2019-04-27T05:00:01.621Z,74.19
2019-04-27T05:01:01.830Z,74.19
2019-04-27T05:02:02.331Z,74.15
2019-04-27T05:03:00.760Z,73.85
2019-04-27T05:04:00.752Z,73.85
2019-04-27T05:05:00.774Z,73.74
2019-04-27T05:06:00.733Z,73.85
2019-04-27T05:07:00.729Z,73.74
2019-04-27T05:08:01.680Z,73.64
2019-04-27T05:09:00.692Z,73.64
2019-04-27T05:10:00.680Z,73.33
2019-04-27T05:11:00.691Z,73.40
2019-04-27T05:12:00.663Z,73.10
2019-04-27T05:13:00.652Z,72.89
2019-04-27T05:14:01.549Z,72.78
2019-04-27T05:15:00.750Z,72.78
2019-04-27T05:16:00.624Z,72.78
2019-04-27T05:17:00.608Z,72.69
2019-04-27T05:18:00.602Z,72.24
2019-04-27T05:19:00.589Z,72.14
2019-04-27T05:20:00.592Z,71.94
2019-04-27T05:21:00.557Z,71.94
2019-04-27T05:22:00.548Z,71.73
2019-04-27T05:23:00.543Z,71.49
2019-04-27T05:24:00.816Z,71.39
2019-04-27T05:25:00.588Z,71.29
2019-04-27T05:26:00.524Z,71.08
2019-04-27T05:27:00.508Z,70.88
2019-04-27T05:28:00.500Z,70.88
2019-04-27T05:29:00.470Z,70.88
2019-04-27T05:30:00.457Z,70.75
2019-04-27T05:31:00.691Z,70.64
2019-04-27T05:32:00.452Z,70.75
2019-04-27T05:33:00.428Z,70.54
2019-04-27T05:34:00.433Z,70.23
2019-04-27T05:35:00.410Z,70.43
2019-04-27T05:36:00.418Z,70.30
2019-04-27T05:37:01.143Z,70.00
2019-04-27T05:38:06.820Z,70.00
2019-04-27T05:39:01.380Z,69.69
2019-04-27T05:40:00.367Z,69.79
2019-04-27T05:41:00.347Z,69.18
2019-04-27T05:42:00.341Z,69.07
2019-04-27T05:43:00.326Z,69.38
2019-04-27T05:44:03.259Z,69.48
2019-04-27T05:45:01.319Z,68.97
2019-04-27T05:46:01.126Z,69.04
2019-04-27T05:47:00.298Z,68.84
2019-04-27T05:48:00.737Z,68.84
2019-04-27T05:49:06.074Z,69.04
2019-04-27T05:50:01.256Z,68.94
2019-04-27T05:51:01.832Z,68.84
2019-04-27T05:52:00.236Z,68.63
2019-04-27T05:53:00.218Z,68.94
2019-04-27T05:54:00.212Z,69.15
2019-04-27T05:55:00.196Z,68.63
2019-04-27T05:56:00.193Z,68.43
2019-04-27T05:57:00.186Z,68.43
2019-04-27T05:58:00.171Z,68.23
2019-04-27T05:59:00.412Z,68.23
2019-04-27T06:00:02.071Z,68.30
2019-04-27T06:01:00.149Z,68.19
2019-04-27T06:02:00.137Z,67.99
2019-04-27T06:03:00.106Z,67.89
2019-04-27T06:04:00.093Z,67.79
2019-04-27T06:05:00.359Z,67.99
2019-04-27T06:06:01.707Z,67.79
2019-04-27T06:07:01.027Z,68.19
2019-04-27T06:08:00.045Z,67.79
2019-04-27T06:09:00.048Z,67.89
2019-04-27T06:10:00.112Z,67.76
2019-04-27T06:11:00.013Z,67.45
2019-04-27T06:12:00.046Z,67.35
2019-04-27T06:12:59.997Z,67.11
2019-04-27T06:14:00.003Z,66.91
2019-04-27T06:15:00.244Z,66.91
2019-04-27T06:15:59.977Z,66.47
2019-04-27T06:16:59.955Z,66.16
2019-04-27T06:17:59.955Z,65.72
2019-04-27T06:18:59.936Z,65.42
2019-04-27T06:19:59.934Z,65.31
2019-04-27T06:20:59.949Z,65.19
2019-04-27T06:22:01.323Z,64.98
2019-04-27T06:22:59.890Z,64.95
2019-04-27T06:23:59.904Z,64.75
2019-04-27T06:25:00.396Z,64.00
2019-04-27T06:26:01.846Z,64.00
2019-04-27T06:26:59.918Z,63.29
2019-04-27T06:27:59.887Z,63.49
2019-04-27T06:28:59.855Z,62.96
2019-04-27T06:29:59.814Z,62.85
2019-04-27T06:30:59.803Z,62.75
2019-04-27T06:31:59.805Z,63.16
2019-04-27T06:32:59.795Z,62.52
2019-04-27T06:33:59.909Z,62.11
2019-04-27T06:34:59.778Z,62.52
2019-04-27T06:36:01.759Z,62.72
2019-04-27T06:37:00.031Z,62.72
2019-04-27T06:37:59.723Z,63.02
2019-04-27T06:38:59.723Z,62.32
2019-04-27T06:39:59.986Z,62.62
2019-04-27T06:41:01.425Z,62.41
2019-04-27T06:42:01.266Z,62.41
2019-04-27T06:42:59.685Z,62.59
2019-04-27T06:43:59.665Z,61.71
2019-04-27T06:45:00.134Z,61.71
2019-04-27T06:45:59.643Z,62.21
2019-04-27T06:46:59.707Z,62.32
2019-04-27T06:47:59.685Z,62.62
2019-04-27T06:48:59.602Z,62.52
2019-04-27T06:49:59.591Z,62.59
2019-04-27T06:51:05.046Z,62.18
2019-04-27T06:52:00.587Z,62.11
2019-04-27T06:52:59.563Z,62.21
2019-04-27T06:53:59.595Z,61.88
2019-04-27T06:55:00.647Z,62.01
2019-04-27T06:55:59.543Z,62.41
2019-04-27T06:56:59.514Z,62.29
2019-04-27T06:57:59.504Z,62.70
2019-04-27T06:58:59.821Z,63.00
2019-04-27T06:59:59.483Z,62.90
2019-04-27T07:00:59.641Z,62.39
2019-04-27T07:02:00.862Z,62.29
2019-04-27T07:02:59.756Z,62.18
2019-04-27T07:03:59.873Z,62.49
2019-04-27T07:04:59.450Z,62.59
2019-04-27T07:05:59.431Z,62.70
2019-04-27T07:07:01.635Z,62.41
2019-04-27T07:07:59.403Z,62.82
2019-04-27T07:08:59.837Z,63.33
2019-04-27T07:09:59.564Z,62.72
2019-04-27T07:10:59.412Z,62.65
2019-04-27T07:11:59.440Z,63.06
2019-04-27T07:12:59.770Z,63.77
2019-04-27T07:13:59.474Z,63.19
2019-04-27T07:14:59.412Z,63.29
2019-04-27T07:15:59.741Z,63.19
2019-04-27T07:16:59.319Z,63.26
2019-04-27T07:17:59.313Z,62.96
2019-04-27T07:18:59.461Z,62.96
2019-04-27T07:19:59.625Z,63.26
2019-04-27T07:20:59.271Z,62.85
2019-04-27T07:21:59.608Z,62.96
2019-04-27T07:22:59.569Z,63.16
2019-04-27T07:23:59.672Z,63.06
2019-04-27T07:24:59.211Z,62.96
2019-04-27T07:25:59.879Z,63.16
2019-04-27T07:26:59.776Z,62.85
2019-04-27T07:27:59.333Z,62.65
2019-04-27T07:28:59.733Z,62.85
2019-04-27T07:30:01.511Z,63.16
2019-04-27T07:30:59.610Z,62.96
2019-04-27T07:31:59.635Z,62.85
2019-04-27T07:33:00.410Z,63.26
2019-04-27T07:33:59.618Z,63.36
2019-04-27T07:34:59.100Z,63.77
2019-04-27T07:35:59.174Z,64.15
2019-04-27T07:36:59.722Z,64.45
2019-04-27T07:37:59.120Z,64.86
2019-04-27T07:38:59.909Z,63.94
2019-04-27T07:39:59.265Z,63.74
2019-04-27T07:40:59.053Z,63.43
2019-04-27T07:41:59.032Z,63.67
2019-04-27T07:42:59.434Z,63.87
2019-04-27T07:43:59.012Z,63.87
2019-04-27T07:44:59.517Z,64.18
2019-04-27T07:45:59.134Z,64.18
2019-04-27T07:46:59.472Z,64.41
2019-04-27T07:47:59.178Z,64.58
2019-04-27T07:48:59.506Z,64.79
2019-04-27T07:49:59.587Z,64.79
2019-04-27T07:50:59.117Z,65.60
2019-04-27T07:51:59.014Z,66.00
2019-04-27T07:52:58.933Z,65.70
2019-04-27T07:53:59.015Z,66.21
2019-04-27T07:54:58.912Z,66.82
2019-04-27T07:55:59.317Z,67.13
2019-04-27T07:56:58.865Z,66.92
2019-04-27T07:57:59.525Z,66.61
2019-04-27T07:58:59.557Z,67.63
2019-04-27T07:59:59.677Z,67.77
2019-04-27T08:00:59.464Z,67.97
2019-04-27T08:01:59.171Z,68.79
2019-04-27T08:02:58.969Z,69.53
2019-04-27T08:03:59.126Z,69.63
2019-04-27T08:04:59.618Z,70.99
2019-04-27T08:05:58.946Z,70.99
2019-04-27T08:06:59.540Z,72.21
2019-04-27T08:08:00.230Z,73.16
2019-04-27T08:08:59.359Z,73.77
2019-04-27T08:10:01.073Z,74.28
2019-04-27T08:10:59.514Z,74.79
2019-04-27T08:11:58.741Z,74.21
2019-04-27T08:12:59.750Z,75.34
2019-04-27T08:13:58.943Z,75.44
2019-04-27T08:15:00.077Z,75.23
2019-04-27T08:15:59.108Z,75.64
2019-04-27T08:16:58.727Z,74.93
2019-04-27T08:17:59.232Z,75.23
2019-04-27T08:18:59.991Z,74.73
2019-04-27T08:19:59.574Z,76.15
2019-04-27T08:20:59.009Z,75.78
2019-04-27T08:21:59.643Z,76.80
2019-04-27T08:22:59.859Z,76.09
2019-04-27T08:23:58.745Z,76.90
2019-04-27T08:24:59.498Z,77.51
2019-04-27T08:25:58.937Z,78.39
2019-04-27T08:26:59.436Z,77.89
2019-04-27T08:28:00.220Z,77.78
2019-04-27T08:28:58.654Z,78.19
2019-04-27T08:29:58.862Z,78.60
2019-04-27T08:30:59.004Z,77.21
2019-04-27T08:31:58.590Z,78.23
2019-04-27T08:32:59.371Z,78.43
2019-04-27T08:34:00.044Z,78.43
2019-04-27T08:34:59.501Z,78.64
2019-04-27T08:35:59.068Z,79.25
2019-04-27T08:37:00.646Z,79.18
2019-04-27T08:37:59.407Z,79.49
2019-04-27T08:38:58.837Z,79.28
2019-04-27T08:39:59.248Z,79.80
2019-04-27T08:40:59.247Z,79.39
2019-04-27T08:41:59.481Z,79.49
2019-04-27T08:42:59.193Z,79.49
2019-04-27T08:43:58.798Z,79.90
2019-04-27T08:44:59.384Z,79.90
2019-04-27T08:45:58.902Z,79.90
2019-04-27T08:46:59.651Z,79.28
2019-04-27T08:47:59.456Z,79.90
2019-04-27T08:48:58.730Z,79.39
2019-04-27T08:49:59.101Z,79.49
2019-04-27T08:50:59.367Z,80.07
2019-04-27T08:52:01.675Z,79.96
2019-04-27T08:52:58.269Z,79.93
2019-04-27T08:53:59.141Z,78.60
2019-04-27T08:54:59.449Z,78.60
2019-04-27T08:55:59.173Z,78.80
2019-04-27T08:56:59.642Z,78.30
2019-04-27T08:57:58.736Z,79.11
2019-04-27T08:58:59.505Z,78.91
2019-04-27T08:59:59.647Z,79.00
2019-04-27T09:00:59.037Z,78.39
2019-04-27T09:01:58.733Z,78.70
2019-04-27T09:02:59.536Z,78.70
2019-04-27T09:03:59.283Z,78.91
2019-04-27T09:04:59.659Z,79.62
2019-04-27T09:05:59.045Z,78.09
2019-04-27T09:06:59.782Z,78.50
2019-04-27T09:07:59.686Z,78.80
2019-04-27T09:08:59.301Z,78.80
2019-04-27T09:09:59.638Z,77.98
2019-04-27T09:10:58.985Z,78.70
2019-04-27T09:11:59.454Z,79.17
2019-04-27T09:12:58.868Z,78.16
2019-04-27T09:13:58.966Z,78.36
2019-04-27T09:14:59.199Z,78.87
2019-04-27T09:15:59.926Z,78.97
2019-04-27T09:17:02.281Z,78.97
2019-04-27T09:17:58.847Z,79.17
2019-04-27T09:18:59.672Z,78.36
2019-04-27T09:19:59.105Z,77.75
2019-04-27T09:20:58.942Z,77.75
2019-04-27T09:22:10.391Z,78.05
2019-04-27T09:22:59.268Z,78.56
2019-04-27T09:23:59.299Z,79.07
2019-04-27T09:24:59.464Z,78.77
2019-04-27T09:25:59.484Z,79.03
2019-04-27T09:26:59.556Z,79.54
2019-04-27T09:27:59.666Z,79.24
2019-04-27T09:28:59.513Z,77.87
2019-04-27T09:29:59.043Z,78.49
2019-04-27T09:30:58.630Z,76.45
2019-04-27T09:32:01.512Z,76.86
2019-04-27T09:32:57.830Z,76.82
2019-04-27T09:33:57.840Z,77.03
2019-04-27T09:34:57.810Z,77.33
2019-04-27T09:35:57.798Z,77.33
2019-04-27T09:36:57.800Z,76.18
2019-04-27T09:37:57.780Z,77.09
2019-04-27T09:38:57.783Z,76.59
2019-04-27T09:39:57.747Z,76.18
2019-04-27T09:40:58.103Z,75.46
2019-04-27T09:41:57.770Z,75.16
2019-04-27T09:42:57.718Z,75.26
2019-04-27T09:43:57.752Z,75.98
2019-04-27T09:44:57.697Z,75.53
2019-04-27T09:45:57.687Z,75.12
2019-04-27T09:46:57.685Z,76.14
2019-04-27T09:47:57.700Z,75.94
2019-04-27T09:48:57.736Z,75.53
2019-04-27T09:49:57.655Z,74.21
2019-04-27T09:50:57.636Z,74.18
2019-04-27T09:51:57.627Z,75.80
2019-04-27T09:52:57.735Z,75.09
2019-04-27T09:53:57.628Z,74.38
2019-04-27T09:54:57.650Z,74.34
2019-04-27T09:55:57.589Z,74.34
2019-04-27T09:56:57.582Z,73.33
2019-04-27T09:57:57.580Z,73.16
2019-04-27T09:58:57.680Z,74.28
2019-04-27T09:59:57.557Z,74.48
2019-04-27T10:00:57.539Z,74.68
2019-04-27T10:01:57.804Z,75.12
2019-04-27T10:02:57.680Z,75.12
2019-04-27T10:03:57.498Z,74.82
2019-04-27T10:04:57.497Z,75.26
2019-04-27T10:05:57.679Z,75.77
2019-04-27T10:06:57.466Z,76.48
2019-04-27T10:07:57.477Z,76.82
2019-04-27T10:08:57.761Z,77.53
2019-04-27T10:09:57.487Z,76.31
2019-04-27T10:10:57.439Z,75.91
2019-04-27T10:11:57.430Z,76.72
2019-04-27T10:12:57.427Z,77.23
2019-04-27T10:13:57.387Z,76.62
2019-04-27T10:14:57.396Z,76.92
2019-04-27T10:15:57.376Z,77.44
2019-04-27T10:16:57.389Z,77.37
2019-04-27T10:17:57.704Z,77.87
2019-04-27T10:18:57.358Z,79.20
2019-04-27T10:19:57.338Z,78.49
2019-04-27T10:21:01.858Z,77.98
2019-04-27T10:21:58.307Z,76.96
2019-04-27T10:22:57.332Z,77.78
2019-04-27T10:23:58.028Z,77.98
2019-04-27T10:24:57.289Z,77.57
2019-04-27T10:25:57.258Z,78.39
2019-04-27T10:26:57.277Z,79.20
2019-04-27T10:27:57.276Z,79.61
2019-04-27T10:28:57.248Z,78.49
2019-04-27T10:29:58.521Z,77.74
2019-04-27T10:30:57.382Z,78.69
2019-04-27T10:31:57.209Z,77.84
2019-04-27T10:32:57.259Z,77.53
2019-04-27T10:33:57.202Z,78.05
2019-04-27T10:34:57.187Z,77.33
2019-04-27T10:35:57.147Z,78.52
2019-04-27T10:36:57.146Z,77.94
2019-04-27T10:37:57.141Z,77.44
2019-04-27T10:38:57.126Z,77.23
2019-04-27T10:39:57.118Z,77.53
2019-04-27T10:40:57.317Z,77.94
2019-04-27T10:41:57.169Z,77.91
2019-04-27T10:42:57.076Z,76.59
2019-04-27T10:43:57.252Z,77.20
2019-04-27T10:44:57.056Z,76.59
2019-04-27T10:45:57.047Z,76.99
2019-04-27T10:46:57.708Z,75.98
2019-04-27T10:47:57.039Z,77.40
2019-04-27T10:48:57.248Z,77.40
2019-04-27T10:49:57.019Z,76.07
2019-04-27T10:50:57.137Z,76.79
2019-04-27T10:51:56.987Z,76.99
2019-04-27T10:52:59.300Z,77.29
2019-04-27T10:53:56.967Z,76.95
2019-04-27T10:54:57.422Z,76.55
2019-04-27T10:55:57.176Z,75.12
2019-04-27T10:56:57.019Z,75.63
2019-04-27T10:57:56.981Z,76.14
2019-04-27T10:58:56.909Z,76.45
2019-04-27T10:59:56.896Z,76.41
2019-04-27T11:00:58.433Z,76.10
2019-04-27T11:01:56.916Z,75.49
2019-04-27T11:02:58.368Z,76.10
2019-04-27T11:03:57.484Z,76.68
2019-04-27T11:04:56.905Z,75.36
2019-04-27T11:05:57.010Z,75.09
2019-04-27T11:06:56.915Z,74.48
2019-04-27T11:07:57.036Z,75.73
2019-04-27T11:08:56.828Z,76.25
2019-04-27T11:09:56.817Z,75.94
2019-04-27T11:10:56.973Z,77.40
2019-04-27T11:11:56.786Z,77.40
2019-04-27T11:12:56.866Z,76.72
2019-04-27T11:14:00.724Z,77.64
2019-04-27T11:14:56.746Z,78.39
2019-04-27T11:15:56.727Z,79.61
2019-04-27T11:16:56.717Z,80.26
2019-04-27T11:17:56.706Z,79.44
2019-04-27T11:18:58.737Z,80.60
2019-04-27T11:19:56.685Z,81.52
2019-04-27T11:20:56.828Z,80.54
2019-04-27T11:21:56.659Z,78.70
2019-04-27T11:23:06.694Z,76.70
2019-04-27T11:23:57.640Z,75.78
2019-04-27T11:24:56.627Z,75.41
2019-04-27T11:25:56.626Z,76.06
2019-04-27T11:26:56.746Z,77.28
2019-04-27T11:27:57.796Z,78.09
2019-04-27T11:28:56.815Z,78.41
2019-04-27T11:29:56.577Z,78.91
2019-04-27T11:30:56.647Z,79.22
2019-04-27T11:31:56.558Z,80.24
2019-04-27T11:32:58.966Z,80.44
2019-04-27T11:33:56.706Z,80.55
2019-04-27T11:34:56.516Z,79.90
2019-04-27T11:35:56.528Z,79.69
2019-04-27T11:36:56.527Z,80.00
2019-04-27T11:37:56.490Z,78.88
2019-04-27T11:38:56.573Z,79.08
2019-04-27T11:39:56.578Z,79.18
2019-04-27T11:40:56.783Z,79.59
2019-04-27T11:41:56.459Z,77.72
2019-04-27T11:42:57.334Z,77.82
2019-04-27T11:43:56.658Z,77.41
2019-04-27T11:44:58.279Z,77.37
2019-04-27T11:45:56.397Z,77.58
2019-04-27T11:46:56.408Z,77.03
2019-04-27T11:47:57.124Z,77.95
2019-04-27T11:48:58.282Z,76.01
2019-04-27T11:49:57.954Z,73.47
2019-04-27T11:50:56.346Z,75.60
2019-04-27T11:51:56.780Z,73.47
2019-04-27T11:52:56.710Z,74.79
2019-04-27T11:53:56.336Z,74.58
2019-04-27T11:54:56.309Z,72.24
2019-04-27T11:55:56.297Z,73.16
2019-04-27T11:56:56.288Z,74.35
2019-04-27T11:57:56.257Z,73.33
2019-04-27T11:58:56.285Z,74.28
2019-04-27T11:59:57.971Z,72.48
2019-04-27T12:00:56.237Z,74.21
2019-04-27T12:01:56.228Z,74.32
2019-04-27T12:02:56.763Z,72.89
2019-04-27T12:03:56.208Z,73.30
2019-04-27T12:04:57.225Z,72.99
2019-04-27T12:06:00.040Z,73.10
2019-04-27T12:06:56.557Z,74.21
2019-04-27T12:07:56.294Z,75.07
2019-04-27T12:08:56.365Z,75.07
2019-04-27T12:09:56.140Z,75.78
2019-04-27T12:10:56.116Z,75.82
2019-04-27T12:12:06.761Z,76.32
2019-04-27T12:12:57.194Z,76.16
2019-04-27T12:13:56.280Z,74.56
2019-04-27T12:14:56.223Z,75.00
2019-04-27T12:15:56.163Z,71.12
2019-04-27T12:16:56.235Z,72.38
2019-04-27T12:17:56.348Z,73.64
2019-04-27T12:18:56.476Z,72.52
2019-04-27T12:19:56.085Z,72.92
2019-04-27T12:20:56.025Z,73.91
2019-04-27T12:21:56.561Z,73.91
2019-04-27T12:22:56.088Z,70.75
2019-04-27T12:23:55.998Z,72.17
2019-04-27T12:24:56.201Z,68.77
2019-04-27T12:25:56.416Z,70.20
2019-04-27T12:26:57.465Z,69.04
2019-04-27T12:27:55.994Z,70.06
2019-04-27T12:28:56.153Z,66.97
2019-04-27T12:29:55.947Z,68.06
2019-04-27T12:30:55.946Z,66.53
2019-04-27T12:31:56.284Z,68.88
2019-04-27T12:32:55.950Z,70.40
2019-04-27T12:33:56.107Z,69.15
2019-04-27T12:34:56.536Z,67.72
2019-04-27T12:35:56.907Z,69.05
2019-04-27T12:36:55.857Z,69.66
2019-04-27T12:37:56.085Z,68.23
2019-04-27T12:38:56.644Z,67.21
2019-04-27T12:39:57.588Z,67.82
2019-04-27T12:40:56.535Z,67.59
2019-04-27T12:41:56.058Z,68.91
2019-04-27T12:42:55.774Z,67.99
2019-04-27T12:43:56.136Z,67.99
2019-04-27T12:44:55.778Z,66.57
2019-04-27T12:45:56.010Z,65.65
2019-04-27T12:46:57.507Z,67.18
2019-04-27T12:47:56.786Z,65.52
2019-04-27T12:48:57.227Z,64.90
2019-04-27T12:49:57.527Z,64.73
2019-04-27T12:50:56.346Z,65.65
2019-04-27T12:51:55.889Z,65.55